Time;durP1;ratioP1;P1;durP2;ratioP2;P2;SDS_P1;SDS_P2;PMS_P1;PMS_P2;Temp;Humidity;BMP_temperature;BMP_pressure;BME280_temperature;BME280_humidity;BME280_pressure;Samples;Min_cycle;Max_cycle;Signal;HPM_P1;HPM_P2
2021/06/11 00:00:57;;;;;;;4.47;3.50;;;26.30;49.70;;;;;;4971701;28;20207;-70
2021/06/11 00:03:27;;;;;;;3.43;3.23;;;26.30;49.80;;;;;;4971378;28;20228;-70
2021/06/11 00:05:58;;;;;;;4.03;3.50;;;26.20;49.80;;;;;;4970457;28;20212;-70
2021/06/11 00:08:29;;;;;;;3.83;3.40;;;26.30;50.00;;;;;;4944204;28;20663;-70
2021/06/11 00:10:58;;;;;;;5.20;3.60;;;26.20;50.00;;;;;;4969053;28;20212;-70
2021/06/11 00:13:34;;;;;;;4.00;3.70;;;26.20;50.00;;;;;;4956912;28;20208;-70
2021/06/11 00:16:04;;;;;;;4.63;3.63;;;26.20;50.10;;;;;;4976791;28;20530;-70
2021/06/11 00:18:35;;;;;;;4.23;3.83;;;26.20;50.10;;;;;;4982672;28;20248;-70
2021/06/11 00:21:08;;;;;;;4.40;4.00;;;26.20;50.20;;;;;;4988555;28;20546;-70
2021/06/11 00:23:37;;;;;;;3.97;3.67;;;26.10;50.10;;;;;;4990143;28;20192;-70
2021/06/11 00:26:08;;;;;;;4.03;3.63;;;26.20;50.30;;;;;;4987812;28;20185;-70
2021/06/11 00:28:40;;;;;;;4.63;4.20;;;26.20;50.30;;;;;;4986827;28;20207;-70
2021/06/11 00:31:11;;;;;;;4.50;4.10;;;26.10;50.20;;;;;;4989029;28;20634;-70
2021/06/11 00:33:42;;;;;;;4.53;4.10;;;26.10;50.20;;;;;;4989973;28;20218;-70
2021/06/11 00:36:14;;;;;;;4.00;3.70;;;26.10;50.20;;;;;;4980600;28;20193;-70
2021/06/11 00:38:46;;;;;;;5.13;4.30;;;26.10;50.20;;;;;;4988113;28;20204;-70
2021/06/11 00:41:17;;;;;;;4.53;4.13;;;26.10;50.30;;;;;;5002138;28;20571;-70
2021/06/11 00:43:46;;;;;;;4.93;4.27;;;26.10;50.40;;;;;;4987387;28;20213;-70
2021/06/11 00:46:15;;;;;;;4.97;4.53;;;26.10;50.50;;;;;;4989507;28;20196;-70
2021/06/11 00:48:47;;;;;;;6.23;4.70;;;26.10;50.60;;;;;;4974010;28;20208;-71
2021/06/11 00:51:22;;;;;;;5.63;5.13;;;26.10;50.60;;;;;;4989823;28;20251;-71
2021/06/11 00:53:54;;;;;;;5.20;4.70;;;26.10;50.60;;;;;;4973785;28;20556;-71
2021/06/11 00:56:27;;;;;;;5.07;4.57;;;26.00;50.90;;;;;;4987264;28;20197;-71
2021/06/11 00:58:57;;;;;;;5.33;4.50;;;26.00;51.00;;;;;;4988285;28;20291;-70
2021/06/11 01:01:30;;;;;;;6.50;4.80;;;26.00;51.20;;;;;;4988313;28;20204;-70
2021/06/11 01:04:03;;;;;;;5.43;4.57;;;26.00;51.20;;;;;;4988199;28;20208;-70
2021/06/11 01:06:38;;;;;;;5.47;4.97;;;26.00;51.20;;;;;;4991953;28;20526;-70
2021/06/11 01:09:22;;;;;;;6.60;5.60;;;26.00;51.20;;;;;;4992395;28;20415;-70
2021/06/11 01:11:56;;;;;;;6.80;5.43;;;26.00;51.20;;;;;;4979416;28;20215;-70
2021/06/11 01:14:25;;;;;;;6.87;5.67;;;26.00;51.20;;;;;;4976768;28;20222;-70
2021/06/11 01:16:56;;;;;;;6.03;5.40;;;26.00;51.20;;;;;;4977627;28;20243;-70
2021/06/11 01:19:41;;;;;;;6.13;5.57;;;25.90;51.10;;;;;;4992210;28;20291;-70
2021/06/11 01:22:29;;;;;;;6.57;5.97;;;25.90;51.20;;;;;;4990575;28;20228;-70
2021/06/11 01:25:13;;;;;;;5.83;5.33;;;25.90;51.20;;;;;;4977838;28;20613;-70
2021/06/11 01:28:05;;;;;;;6.20;5.60;;;25.90;51.20;;;;;;4993326;28;20192;-71
2021/06/11 01:30:33;;;;;;;7.20;5.80;;;25.90;51.30;;;;;;4976388;28;20215;-71
2021/06/11 01:33:04;;;;;;;6.57;5.97;;;25.90;51.30;;;;;;4954691;28;20216;-71
2021/06/11 01:35:54;;;;;;;6.30;5.77;;;25.90;51.40;;;;;;4970662;28;20204;-71
2021/06/11 01:38:40;;;;;;;7.37;6.20;;;25.90;51.40;;;;;;4983849;28;20236;-71
2021/06/11 01:41:19;;;;;;;6.87;6.33;;;25.80;51.30;;;;;;4976437;28;20215;-70
2021/06/11 01:43:53;;;;;;;7.53;5.97;;;25.90;51.50;;;;;;4992032;28;20299;-70
2021/06/11 01:46:29;;;;;;;6.20;5.60;;;25.90;51.60;;;;;;4991406;28;20270;-70
2021/06/11 01:49:00;;;;;;;6.33;5.73;;;25.80;51.60;;;;;;5000332;28;20239;-70
2021/06/11 01:51:33;;;;;;;7.37;6.50;;;25.80;51.70;;;;;;4977127;28;20196;-70
2021/06/11 01:54:15;;;;;;;7.93;6.30;;;25.80;51.80;;;;;;4980710;28;20208;-70
2021/06/11 01:56:45;;;;;;;7.07;6.37;;;25.80;51.80;;;;;;4991563;28;20196;-70
2021/06/11 01:59:18;;;;;;;6.63;6.03;;;25.80;51.80;;;;;;4991694;28;20291;-71
2021/06/11 02:01:50;;;;;;;9.03;6.20;;;25.80;51.80;;;;;;4981381;28;20680;-71
2021/06/11 02:04:22;;;;;;;7.87;6.63;;;25.80;51.90;;;;;;4998338;28;20231;-71
2021/06/11 02:06:56;;;;;;;6.73;6.17;;;25.80;52.00;;;;;;4990936;28;20258;-71
2021/06/11 02:09:27;;;;;;;7.90;7.10;;;25.80;51.90;;;;;;4992430;28;20197;-71
2021/06/11 02:12:20;;;;;;;6.80;6.23;;;25.80;51.90;;;;;;5000760;28;20735;-71
2021/06/11 02:14:47;;;;;;;7.47;6.33;;;25.80;51.80;;;;;;4982531;28;20633;-71
2021/06/11 02:17:20;;;;;;;7.10;6.40;;;25.80;51.80;;;;;;4961741;28;20216;-71
2021/06/11 02:19:50;;;;;;;6.83;6.13;;;25.70;51.80;;;;;;4991069;28;20236;-71
2021/06/11 02:22:22;;;;;;;6.33;5.83;;;25.70;51.70;;;;;;4991970;28;20299;-71
2021/06/11 02:24:51;;;;;;;7.20;6.50;;;25.70;51.70;;;;;;4991272;28;20201;-71
2021/06/11 02:27:23;;;;;;;8.17;6.60;;;25.70;51.80;;;;;;4994042;28;20200;-71
2021/06/11 02:29:58;;;;;;;7.20;6.50;;;25.70;51.70;;;;;;4990561;28;20248;-70
2021/06/11 02:32:40;;;;;;;7.20;6.70;;;25.70;51.80;;;;;;4976975;28;20219;-71
2021/06/11 02:35:13;;;;;;;6.93;6.33;;;25.70;51.80;;;;;;4978118;28;20210;-71
2021/06/11 02:37:55;;;;;;;6.13;5.53;;;25.70;51.70;;;;;;4995729;28;20799;-71
2021/06/11 02:40:28;;;;;;;6.70;5.97;;;25.70;51.70;;;;;;4989774;28;20292;-71
2021/06/11 02:43:22;;;;;;;5.63;5.23;;;25.60;51.60;;;;;;4992110;28;20238;-71
2021/06/11 02:46:14;;;;;;;6.73;5.63;;;25.70;51.70;;;;;;4974189;28;20282;-71
2021/06/11 02:49:05;;;;;;;6.43;5.57;;;25.70;51.70;;;;;;4989322;28;20209;-71
2021/06/11 02:51:43;;;;;;;6.10;5.50;;;25.70;51.70;;;;;;4991326;28;20207;-71
2021/06/11 02:54:20;;;;;;;5.90;5.40;;;25.60;51.60;;;;;;4973211;28;20210;-71
2021/06/11 02:56:58;;;;;;;6.13;5.50;;;25.60;51.70;;;;;;4975648;28;20210;-71
2021/06/11 02:59:39;;;;;;;6.03;5.43;;;25.60;51.70;;;;;;4993780;28;20883;-71
2021/06/11 03:02:13;;;;;;;6.07;5.20;;;25.60;51.70;;;;;;4997326;28;20574;-71
2021/06/11 03:04:56;;;;;;;5.53;5.03;;;25.60;51.60;;;;;;4989628;28;20192;-71
2021/06/11 03:07:31;;;;;;;5.37;4.73;;;25.60;51.70;;;;;;4988073;28;20551;-71
2021/06/11 03:10:09;;;;;;;6.17;5.03;;;25.60;51.60;;;;;;4988598;28;20660;-71
2021/06/11 03:12:50;;;;;;;6.47;4.90;;;25.60;51.60;;;;;;4988071;28;20208;-71
2021/06/11 03:15:31;;;;;;;4.67;4.27;;;25.50;51.60;;;;;;4990649;28;20207;-71
2021/06/11 03:18:07;;;;;;;3.83;3.40;;;25.50;51.30;;;;;;4975927;28;20300;-71
2021/06/11 03:20:38;;;;;;;5.10;3.77;;;25.50;50.90;;;;;;4973144;28;20208;-71
2021/06/11 03:23:19;;;;;;;3.80;3.50;;;25.50;50.80;;;;;;4988132;28;20680;-71
2021/06/11 03:25:58;;;;;;;3.63;3.33;;;25.50;50.70;;;;;;4990573;28;20189;-71
2021/06/11 03:28:44;;;;;;;3.70;3.40;;;25.50;50.70;;;;;;4975555;28;20223;-71
2021/06/11 03:31:48;;;;;;;4.53;3.30;;;25.50;50.70;;;;;;4987611;28;20214;-71
2021/06/11 03:34:41;;;;;;;3.70;3.40;;;25.50;50.80;;;;;;4965790;28;20550;-71
2021/06/11 03:37:17;;;;;;;5.20;3.60;;;25.50;50.80;;;;;;4977286;28;20193;-71
2021/06/11 03:39:57;;;;;;;4.27;3.83;;;25.50;50.80;;;;;;4973835;28;20660;-71
2021/06/11 03:42:28;;;;;;;4.67;4.07;;;25.50;50.90;;;;;;4986965;28;20224;-71
2021/06/11 03:44:58;;;;;;;4.13;3.73;;;25.40;50.90;;;;;;4979031;28;20192;-71
2021/06/11 03:47:40;;;;;;;6.17;4.03;;;25.40;50.90;;;;;;4973901;28;20208;-71
2021/06/11 03:50:11;;;;;;;3.63;3.20;;;25.40;50.90;;;;;;4980620;28;20649;-70
2021/06/11 03:52:44;;;;;;;4.10;3.80;;;25.40;50.90;;;;;;4987892;28;20196;-70
2021/06/11 03:55:27;;;;;;;4.10;3.70;;;25.40;51.00;;;;;;4963821;28;20204;-70
2021/06/11 03:58:13;;;;;;;4.10;3.70;;;25.40;50.90;;;;;;4988369;28;20227;-69
2021/06/11 04:00:57;;;;;;;4.63;4.20;;;25.40;51.00;;;;;;4983612;28;20231;-70
2021/06/11 04:03:28;;;;;;;4.30;3.90;;;25.40;51.00;;;;;;4990802;28;20208;-71
2021/06/11 04:06:28;;;;;;;4.20;3.80;;;25.40;51.00;;;;;;4990042;28;20228;-71
2021/06/11 04:09:05;;;;;;;4.03;3.53;;;25.40;51.00;;;;;;4990177;28;20196;-71
2021/06/11 04:11:55;;;;;;;4.50;4.00;;;25.40;51.00;;;;;;4975098;28;20485;-71
2021/06/11 04:14:30;;;;;;;5.47;3.90;;;25.40;51.00;;;;;;4961563;28;20200;-71
2021/06/11 04:17:21;;;;;;;5.50;3.80;;;25.40;51.10;;;;;;4988251;28;20283;-71
2021/06/11 04:19:56;;;;;;;4.83;4.43;;;25.40;51.10;;;;;;4975464;28;20747;-71
2021/06/11 04:22:46;;;;;;;4.97;4.27;;;25.40;51.10;;;;;;4987264;28;20230;-71
2021/06/11 04:25:38;;;;;;;4.27;3.87;;;25.40;51.10;;;;;;4985318;28;20564;-71
2021/06/11 04:28:09;;;;;;;4.47;4.17;;;25.40;51.20;;;;;;5007101;28;20241;-71
2021/06/11 04:30:41;;;;;;;4.30;3.90;;;25.40;51.20;;;;;;4971226;28;20197;-71
2021/06/11 04:33:25;;;;;;;4.70;4.07;;;25.30;51.20;;;;;;4979358;28;20256;-71
2021/06/11 04:36:07;;;;;;;5.37;3.70;;;25.40;51.20;;;;;;4989396;28;20224;-71
2021/06/11 04:38:53;;;;;;;4.27;3.87;;;25.40;51.30;;;;;;4973166;28;20204;-71
2021/06/11 04:41:26;;;;;;;4.70;4.17;;;25.30;51.20;;;;;;4988403;28;20350;-71
2021/06/11 04:44:07;;;;;;;4.40;4.00;;;25.40;51.30;;;;;;4996853;28;20306;-71
2021/06/11 04:46:40;;;;;;;5.03;3.97;;;25.30;51.40;;;;;;4993522;28;20200;-70
2021/06/11 04:49:09;;;;;;;7.07;4.23;;;25.40;52.40;;;;;;4991289;28;20211;-70
2021/06/11 04:51:37;;;;;;;5.50;4.47;;;25.30;52.00;;;;;;4979944;28;20196;-70
2021/06/11 04:54:05;;;;;;;6.40;4.83;;;25.40;52.00;;;;;;4994953;28;20211;-70
2021/06/11 04:56:34;;;;;;;68.63;23.23;;;25.30;52.40;;;;;;4992064;28;20567;-72
2021/06/11 04:59:06;;;;;;;83.03;22.70;;;25.30;53.40;;;;;;4981659;28;20223;-71
2021/06/11 05:01:37;;;;;;;51.37;16.37;;;25.40;54.20;;;;;;4990253;28;20598;-68
2021/06/11 05:04:08;;;;;;;32.77;12.50;;;25.40;54.60;;;;;;4995750;28;20754;-68
2021/06/11 05:06:53;;;;;;;27.10;11.70;;;25.40;54.10;;;;;;4994528;28;20646;-69
2021/06/11 05:09:21;;;;;;;24.87;10.70;;;25.30;53.70;;;;;;4994036;28;20215;-68
2021/06/11 05:11:53;;;;;;;20.43;9.83;;;25.30;53.40;;;;;;4995971;28;20196;-74
2021/06/11 05:14:22;;;;;;;18.90;9.30;;;25.30;53.20;;;;;;4995113;28;20208;-71
2021/06/11 05:16:51;;;;;;;15.73;7.33;;;25.30;53.20;;;;;;4993721;28;20198;-71
2021/06/11 05:19:21;;;;;;;16.50;7.83;;;25.30;53.40;;;;;;4980148;28;20243;-71
2021/06/11 05:21:51;;;;;;;12.23;7.23;;;25.30;53.40;;;;;;4972872;28;20209;-71
2021/06/11 05:24:21;;;;;;;13.27;7.30;;;25.30;53.20;;;;;;4993186;28;20307;-71
2021/06/11 05:26:50;;;;;;;9.37;6.90;;;25.30;53.10;;;;;;4997718;28;20804;-70
2021/06/11 05:29:26;;;;;;;9.40;6.47;;;25.30;53.10;;;;;;4981727;28;20275;-70
2021/06/11 05:31:55;;;;;;;8.67;5.87;;;25.30;52.90;;;;;;4998586;28;20206;-71
2021/06/11 05:34:25;;;;;;;7.50;6.27;;;25.20;52.70;;;;;;4991049;28;20200;-71
2021/06/11 05:36:57;;;;;;;6.40;5.60;;;25.20;52.80;;;;;;4988569;28;20204;-72
2021/06/11 05:39:27;;;;;;;22.70;9.20;;;25.20;52.90;;;;;;4994647;28;20211;-72
2021/06/11 05:41:59;;;;;;;39.43;14.00;;;25.20;53.50;;;;;;4995599;28;20895;-67
2021/06/11 05:44:27;;;;;;;39.57;11.53;;;25.20;54.60;;;;;;4990316;28;20216;-67
2021/06/11 05:46:59;;;;;;;30.67;11.33;;;25.30;54.60;;;;;;4991676;28;20230;-66
2021/06/11 05:49:41;;;;;;;35.73;10.80;;;25.30;54.90;;;;;;4993848;28;20633;-65
2021/06/11 05:52:11;;;;;;;37.60;11.30;;;25.40;55.00;;;;;;4979666;28;20196;-65
2021/06/11 05:54:43;;;;;;;36.50;10.47;;;25.40;54.70;;;;;;4985605;28;20213;-67
2021/06/11 05:57:14;;;;;;;26.30;9.63;;;25.50;54.70;;;;;;4985514;28;20212;-66
2021/06/11 05:59:46;;;;;;;26.10;9.13;;;25.50;54.60;;;;;;4999566;28;20603;-66
2021/06/11 06:02:15;;;;;;;19.77;7.53;;;25.60;54.30;;;;;;4988960;28;20220;-66
2021/06/11 06:04:46;;;;;;;21.87;7.20;;;25.60;54.10;;;;;;4976148;28;20240;-66
2021/06/11 06:07:15;;;;;;;14.23;6.17;;;25.60;53.90;;;;;;4990214;28;20204;-67
2021/06/11 06:09:44;;;;;;;12.27;5.60;;;25.60;53.70;;;;;;4990298;28;20202;-66
2021/06/11 06:12:15;;;;;;;11.67;5.10;;;25.60;53.50;;;;;;4990143;28;20585;-66
2021/06/11 06:14:43;;;;;;;14.33;5.73;;;25.60;53.30;;;;;;4974145;28;20193;-66
2021/06/11 06:17:12;;;;;;;9.37;4.30;;;25.60;53.20;;;;;;4989611;28;20231;-66
2021/06/11 06:19:46;;;;;;;8.43;4.30;;;25.70;53.10;;;;;;4982080;28;20569;-66
2021/06/11 06:22:37;;;;;;;11.43;4.60;;;25.60;52.90;;;;;;4988792;28;20218;-67
2021/06/11 06:25:07;;;;;;;9.17;4.73;;;25.70;52.90;;;;;;4974577;28;20227;-67
2021/06/11 06:27:42;;;;;;;15.03;6.07;;;25.70;53.10;;;;;;4973926;28;20200;-66
2021/06/11 06:30:15;;;;;;;21.27;6.47;;;25.70;54.40;;;;;;4991407;28;20209;-66
2021/06/11 06:32:58;;;;;;;14.70;5.77;;;25.70;54.60;;;;;;4985157;28;20195;-65
2021/06/11 06:35:29;;;;;;;10.97;4.50;;;25.70;54.00;;;;;;4993544;28;20213;-66
2021/06/11 06:38:01;;;;;;;9.83;4.20;;;25.80;53.70;;;;;;4996981;28;20207;-66
2021/06/11 06:40:31;;;;;;;14.37;4.63;;;25.80;53.50;;;;;;4994522;28;20219;-66
2021/06/11 06:43:03;;;;;;;12.33;4.87;;;25.80;53.30;;;;;;4987773;28;20193;-66
2021/06/11 06:45:33;;;;;;;9.20;4.33;;;25.80;53.30;;;;;;4988045;28;20193;-66
2021/06/11 06:48:07;;;;;;;12.63;4.50;;;25.80;53.10;;;;;;4989186;28;20650;-66
2021/06/11 06:50:40;;;;;;;7.83;3.77;;;25.80;53.10;;;;;;4989825;28;20203;-66
2021/06/11 06:53:11;;;;;;;9.30;4.27;;;25.80;52.90;;;;;;4991111;28;20517;-66
2021/06/11 06:55:42;;;;;;;10.40;4.33;;;25.80;52.80;;;;;;4973956;28;20872;-66
2021/06/11 06:58:12;;;;;;;9.10;4.27;;;25.80;52.70;;;;;;4978032;28;20200;-66
2021/06/11 07:00:42;;;;;;;6.77;3.77;;;25.80;52.60;;;;;;4973148;28;20703;-67
2021/06/11 07:03:10;;;;;;;5.83;3.73;;;25.80;52.60;;;;;;4984071;28;20709;-67
2021/06/11 07:05:42;;;;;;;10.03;3.67;;;25.90;52.50;;;;;;4989105;28;20204;-67
2021/06/11 07:08:13;;;;;;;6.77;3.50;;;25.90;52.60;;;;;;4995933;28;20192;-66
2021/06/11 07:10:43;;;;;;;6.67;3.70;;;25.90;52.50;;;;;;4987982;28;20215;-66
2021/06/11 07:13:15;;;;;;;6.47;3.53;;;25.90;52.40;;;;;;4990521;28;20200;-66
2021/06/11 07:15:58;;;;;;;7.60;3.73;;;25.90;52.30;;;;;;4988677;28;20626;-65
2021/06/11 07:18:37;;;;;;;6.40;4.20;;;25.90;52.30;;;;;;4990119;28;20236;-66
2021/06/11 07:21:10;;;;;;;7.23;3.77;;;25.90;52.20;;;;;;4988655;28;20226;-66
2021/06/11 07:23:42;;;;;;;5.87;3.17;;;25.90;52.10;;;;;;4975092;28;20208;-67
2021/06/11 07:26:14;;;;;;;5.83;3.77;;;25.90;52.10;;;;;;4992819;28;20211;-66
2021/06/11 07:28:46;;;;;;;4.87;3.80;;;25.90;52.60;;;;;;4997329;28;20197;-66
2021/06/11 07:31:17;;;;;;;5.30;3.63;;;25.90;52.00;;;;;;4981131;28;20235;-66
2021/06/11 07:33:49;;;;;;;7.13;3.97;;;25.90;51.80;;;;;;4956082;28;20733;-66
2021/06/11 07:36:20;;;;;;;4.90;3.23;;;25.90;51.80;;;;;;4986237;28;20764;-66
2021/06/11 07:38:48;;;;;;;6.03;3.40;;;25.90;51.80;;;;;;4999102;28;20398;-66
2021/06/11 07:41:20;;;;;;;6.00;3.80;;;25.90;51.70;;;;;;4993731;28;20208;-66
2021/06/11 07:43:54;;;;;;;6.23;3.30;;;26.00;51.80;;;;;;4996989;28;20227;-66
2021/06/11 07:46:26;;;;;;;5.60;3.50;;;26.00;51.70;;;;;;4986416;28;20210;-66
2021/06/11 07:49:04;;;;;;;6.17;3.50;;;26.00;52.50;;;;;;4987232;28;20200;-66
2021/06/11 07:51:42;;;;;;;4.90;3.47;;;26.00;51.70;;;;;;4986967;28;20318;-66
2021/06/11 07:54:13;;;;;;;6.55;3.72;;;26.00;51.60;;;;;;4969738;28;20460;-67
2021/06/11 07:56:44;;;;;;;4.43;3.10;;;26.00;52.40;;;;;;4987699;28;20226;-67
2021/06/11 07:59:15;;;;;;;6.47;2.97;;;25.90;48.10;;;;;;4967506;28;20216;-66
2021/06/11 08:01:47;;;;;;;4.87;2.87;;;25.70;47.00;;;;;;4995528;28;20195;-68
2021/06/11 08:04:18;;;;;;;4.53;2.63;;;25.50;47.70;;;;;;4993194;28;20216;-68
2021/06/11 08:06:47;;;;;;;4.23;2.73;;;25.30;48.30;;;;;;4982283;28;20652;-68
2021/06/11 08:09:17;;;;;;;3.40;2.53;;;25.10;48.20;;;;;;4997482;28;20278;-67
2021/06/11 08:11:50;;;;;;;3.13;2.60;;;24.90;48.30;;;;;;4986015;28;20208;-69
2021/06/11 08:14:26;;;;;;;3.47;2.20;;;24.80;48.60;;;;;;4982253;28;20227;-69
2021/06/11 08:16:55;;;;;;;5.23;2.10;;;24.70;49.00;;;;;;4987869;28;20677;-70
2021/06/11 08:19:23;;;;;;;2.83;2.23;;;24.50;49.10;;;;;;4985795;28;20822;-68
2021/06/11 08:21:54;;;;;;;5.43;2.17;;;24.50;49.20;;;;;;4989408;28;20283;-69
2021/06/11 08:24:26;;;;;;;2.00;1.77;;;24.30;49.30;;;;;;4988043;28;20221;-69
2021/06/11 08:26:55;;;;;;;4.07;2.40;;;24.20;49.20;;;;;;4987282;28;20204;-68
2021/06/11 08:29:27;;;;;;;2.70;1.80;;;24.20;49.40;;;;;;4993192;28;20556;-67
2021/06/11 08:31:56;;;;;;;3.60;2.20;;;24.20;49.50;;;;;;4985036;28;20200;-68
2021/06/11 08:34:32;;;;;;;3.27;2.10;;;24.20;49.80;;;;;;4970894;28;20205;-69
2021/06/11 08:37:09;;;;;;;4.13;1.90;;;24.20;49.60;;;;;;4973742;28;20217;-68
2021/06/11 08:39:37;;;;;;;4.87;2.20;;;24.10;49.40;;;;;;4988974;28;20201;-68
2021/06/11 08:42:10;;;;;;;2.10;1.50;;;24.10;49.50;;;;;;4989490;28;20207;-67
2021/06/11 08:44:42;;;;;;;4.50;1.90;;;24.10;49.30;;;;;;4969076;28;20232;-69
2021/06/11 08:47:12;;;;;;;3.47;1.70;;;24.10;49.40;;;;;;4991828;28;20697;-69
2021/06/11 08:49:43;;;;;;;5.13;1.70;;;24.10;49.50;;;;;;4991028;28;20201;-66
2021/06/11 08:52:13;;;;;;;5.47;1.93;;;24.10;49.40;;;;;;4971003;28;20203;-69
2021/06/11 08:54:47;;;;;;;2.83;1.63;;;24.00;49.30;;;;;;4956746;28;20211;-66
2021/06/11 08:57:24;;;;;;;1.93;1.40;;;24.10;49.50;;;;;;4989809;28;20208;-67
2021/06/11 08:59:55;;;;;;;2.87;1.80;;;24.00;49.40;;;;;;4989830;28;20806;-68
2021/06/11 09:02:27;;;;;;;2.97;2.07;;;24.00;49.20;;;;;;4989968;28;20196;-69
2021/06/11 09:04:59;;;;;;;1.77;1.40;;;24.00;49.30;;;;;;4976363;28;20935;-68
2021/06/11 09:07:34;;;;;;;2.87;1.60;;;24.00;49.20;;;;;;4988817;28;20653;-70
2021/06/11 09:10:10;;;;;;;2.90;1.67;;;24.00;49.40;;;;;;4987535;28;20238;-68
2021/06/11 09:12:57;;;;;;;1.57;1.43;;;24.00;49.20;;;;;;4998859;28;20216;-69
2021/06/11 09:15:29;;;;;;;2.93;1.60;;;24.00;49.30;;;;;;4992290;28;20196;-68
2021/06/11 09:18:22;;;;;;;2.40;1.53;;;23.90;49.30;;;;;;4989474;28;20287;-67
2021/06/11 09:20:53;;;;;;;1.87;1.53;;;23.90;49.20;;;;;;4978317;28;20692;-69
2021/06/11 09:23:35;;;;;;;3.77;1.23;;;23.90;49.20;;;;;;4992207;28;20284;-68
2021/06/11 09:26:18;;;;;;;3.20;1.57;;;23.90;49.40;;;;;;4973369;28;20212;-69
2021/06/11 09:28:47;;;;;;;2.60;1.33;;;23.90;49.30;;;;;;4974951;28;20201;-70
2021/06/11 09:31:25;;;;;;;1.97;1.40;;;23.90;49.30;;;;;;4993678;28;20235;-69
2021/06/11 09:34:21;;;;;;;2.77;1.40;;;23.90;49.30;;;;;;4974613;28;20228;-69
2021/06/11 09:37:19;;;;;;;2.40;1.20;;;23.90;49.30;;;;;;4982707;28;20223;-68
2021/06/11 09:40:03;;;;;;;1.97;1.20;;;23.90;49.50;;;;;;4978245;28;20200;-68
2021/06/11 09:42:44;;;;;;;17.73;5.87;;;23.90;51.90;;;;;;4986990;28;20224;-68
2021/06/11 09:45:39;;;;;;;8.23;3.20;;;23.90;55.40;;;;;;4974037;28;20732;-69
2021/06/11 09:48:20;;;;;;;8.00;3.10;;;24.00;56.40;;;;;;4984035;28;20212;-69
2021/06/11 09:50:51;;;;;;;9.53;3.03;;;24.20;57.70;;;;;;4975469;28;20204;-69
2021/06/11 09:53:29;;;;;;;8.00;3.30;;;24.30;57.90;;;;;;4991337;28;20200;-69
2021/06/11 09:56:01;;;;;;;5.00;2.30;;;24.40;58.70;;;;;;4975552;28;20212;-69
2021/06/11 09:58:39;;;;;;;4.40;2.30;;;24.40;59.00;;;;;;4993712;28;20231;-69
2021/06/11 10:01:12;;;;;;;5.50;2.23;;;24.50;59.10;;;;;;4988082;28;20240;-69
2021/06/11 10:03:47;;;;;;;3.73;2.00;;;24.60;59.50;;;;;;4959754;28;20213;-68
2021/06/11 10:06:23;;;;;;;4.37;2.17;;;24.60;59.70;;;;;;4998218;28;20204;-67
2021/06/11 10:08:56;;;;;;;3.37;1.87;;;24.70;60.10;;;;;;4989041;28;20207;-67
2021/06/11 10:11:29;;;;;;;3.10;2.00;;;24.80;60.30;;;;;;4990790;28;20276;-68
2021/06/11 10:14:03;;;;;;;3.27;2.07;;;24.80;59.20;;;;;;4983262;28;20203;-68
2021/06/11 10:16:34;;;;;;;3.33;1.80;;;24.90;58.30;;;;;;4974471;28;20569;-68
2021/06/11 10:19:03;;;;;;;3.07;1.60;;;25.00;57.20;;;;;;4989784;28;20242;-68
2021/06/11 10:21:34;;;;;;;2.17;1.70;;;25.10;57.00;;;;;;4990735;28;20641;-68
2021/06/11 10:24:05;;;;;;;2.43;1.90;;;25.20;56.50;;;;;;4990265;28;20200;-68
2021/06/11 10:26:35;;;;;;;1.97;1.70;;;25.30;56.70;;;;;;4990016;28;20254;-68
2021/06/11 10:29:12;;;;;;;3.93;1.90;;;25.30;56.70;;;;;;4959469;28;20204;-68
2021/06/11 10:31:56;;;;;;;3.13;1.70;;;25.40;56.30;;;;;;4990022;28;20657;-68
2021/06/11 10:34:54;;;;;;;2.93;1.93;;;25.40;56.20;;;;;;4989014;28;20196;-68
2021/06/11 10:37:44;;;;;;;2.50;1.73;;;25.50;55.70;;;;;;4974096;28;20643;-68
2021/06/11 10:40:33;;;;;;;2.80;1.87;;;25.50;55.80;;;;;;4987377;28;20244;-68
2021/06/11 10:43:40;;;;;;;1.97;1.77;;;25.60;55.40;;;;;;4977481;28;20716;-68
2021/06/11 10:46:24;;;;;;;2.10;1.90;;;25.60;55.40;;;;;;4889598;29;20700;-69
2021/06/11 10:49:09;;;;;;;1.70;1.60;;;25.70;55.10;;;;;;4877135;29;20252;-68
2021/06/11 10:51:50;;;;;;;2.53;1.40;;;25.80;55.30;;;;;;4883748;29;20215;-68
2021/06/11 10:54:32;;;;;;;3.10;1.73;;;25.90;55.50;;;;;;4888107;29;20273;-68
2021/06/11 10:57:15;;;;;;;4.03;1.73;;;25.90;55.60;;;;;;4875389;29;20226;-68
2021/06/11 10:59:49;;;;;;;2.50;1.90;;;26.00;55.70;;;;;;4888628;29;20746;-68
2021/06/11 11:02:43;;;;;;;1.77;1.67;;;26.00;55.80;;;;;;4863034;29;20929;-68
2021/06/11 11:05:38;;;;;;;2.17;1.97;;;26.00;56.30;;;;;;4886226;29;20697;-68
2021/06/11 11:08:09;;;;;;;4.07;2.00;;;26.10;55.70;;;;;;4882453;29;20654;-68
2021/06/11 11:11:04;;;;;;;3.53;2.13;;;26.10;55.20;;;;;;4890186;29;20573;-68
2021/06/11 11:13:39;;;;;;;1.87;1.67;;;26.10;54.80;;;;;;4886381;29;20714;-68
2021/06/11 11:16:23;;;;;;;3.23;1.63;;;26.20;54.70;;;;;;4871939;29;20811;-68
2021/06/11 11:18:54;;;;;;;4.23;1.90;;;26.20;54.60;;;;;;4870422;29;20600;-68
2021/06/11 11:21:42;;;;;;;2.30;1.63;;;26.20;54.60;;;;;;4955776;28;20197;-68
2021/06/11 11:24:13;;;;;;;2.17;1.97;;;26.20;54.40;;;;;;4969715;28;20209;-68
2021/06/11 11:26:48;;;;;;;2.50;1.90;;;26.20;54.70;;;;;;4970611;28;20205;-68
2021/06/11 11:29:32;;;;;;;2.37;2.17;;;26.30;54.50;;;;;;4971109;28;20324;-69
2021/06/11 11:32:04;;;;;;;2.07;1.87;;;26.30;54.50;;;;;;4970314;28;20208;-68
2021/06/11 11:34:35;;;;;;;2.10;1.80;;;26.30;54.50;;;;;;4953272;28;20222;-69
2021/06/11 11:37:03;;;;;;;2.80;1.90;;;26.30;54.50;;;;;;4971541;28;20300;-68
2021/06/11 11:39:35;;;;;;;2.50;2.27;;;26.40;54.60;;;;;;4968817;28;20316;-68
2021/06/11 11:42:11;;;;;;;2.20;2.00;;;26.40;54.50;;;;;;4971592;28;20193;-69
2021/06/11 11:44:49;;;;;;;2.53;2.03;;;26.40;54.60;;;;;;4971024;28;20307;-68
2021/06/11 11:47:20;;;;;;;2.37;2.13;;;26.50;54.70;;;;;;4970560;28;20713;-69
2021/06/11 11:49:53;;;;;;;2.37;2.17;;;26.50;54.80;;;;;;4970075;28;20213;-68
2021/06/11 11:52:32;;;;;;;2.50;2.20;;;26.60;54.90;;;;;;4971045;28;20213;-68
2021/06/11 11:55:05;;;;;;;2.80;2.37;;;26.60;54.90;;;;;;4963753;28;20241;-68
2021/06/11 11:57:35;;;;;;;3.10;2.10;;;26.60;54.90;;;;;;4968882;28;20236;-68
2021/06/11 12:00:13;;;;;;;3.57;2.80;;;26.60;55.30;;;;;;4970187;28;20255;-70
2021/06/11 12:02:45;;;;;;;4.13;3.13;;;26.60;55.10;;;;;;4962022;28;20203;-69
2021/06/11 12:05:18;;;;;;;3.57;3.23;;;26.70;54.90;;;;;;4961317;28;20235;-69
2021/06/11 12:07:47;;;;;;;4.83;3.33;;;26.70;54.90;;;;;;4950979;28;20224;-69
2021/06/11 12:10:15;;;;;;;3.90;3.20;;;26.70;54.90;;;;;;4953897;28;20260;-69
2021/06/11 12:12:45;;;;;;;4.03;3.40;;;26.80;54.90;;;;;;4974642;28;20736;-68
2021/06/11 12:15:28;;;;;;;4.30;3.37;;;26.80;54.70;;;;;;4973032;28;20308;-69
2021/06/11 12:17:59;;;;;;;3.80;3.30;;;26.80;54.90;;;;;;4981941;28;20205;-69
2021/06/11 12:20:34;;;;;;;4.97;3.67;;;26.80;55.00;;;;;;4984284;28;20287;-68
2021/06/11 12:23:06;;;;;;;3.87;3.47;;;26.90;55.20;;;;;;4992833;28;20648;-68
2021/06/11 12:25:36;;;;;;;6.13;4.20;;;26.90;55.10;;;;;;4993452;28;20219;-68
2021/06/11 12:28:07;;;;;;;6.23;3.73;;;26.90;55.00;;;;;;5001012;28;20238;-69
2021/06/11 12:30:38;;;;;;;5.10;4.13;;;26.90;54.90;;;;;;4988103;28;20195;-69
2021/06/11 12:33:09;;;;;;;6.70;4.90;;;26.90;55.20;;;;;;4996085;28;20654;-68
2021/06/11 12:35:42;;;;;;;5.10;4.30;;;27.00;55.40;;;;;;4987783;28;20212;-68
2021/06/11 12:38:12;;;;;;;5.03;4.53;;;27.00;55.40;;;;;;4975593;28;20599;-68
2021/06/11 12:40:43;;;;;;;6.50;4.67;;;27.10;55.40;;;;;;4974841;28;20854;-69
2021/06/11 12:43:18;;;;;;;6.50;4.17;;;27.00;55.30;;;;;;4972915;28;20627;-69
2021/06/11 12:46:02;;;;;;;6.80;4.27;;;27.10;55.40;;;;;;4974319;28;20303;-68
2021/06/11 12:48:33;;;;;;;6.20;4.20;;;27.10;55.20;;;;;;4972640;28;20262;-68
2021/06/11 12:51:03;;;;;;;4.90;4.00;;;27.10;55.50;;;;;;4976517;28;20828;-69
2021/06/11 12:53:34;;;;;;;5.10;4.07;;;27.20;55.20;;;;;;4996461;28;20204;-69
2021/06/11 12:56:06;;;;;;;5.70;4.73;;;27.20;55.50;;;;;;4991072;28;20208;-69
2021/06/11 12:58:34;;;;;;;7.13;4.70;;;27.20;55.50;;;;;;4971342;28;20232;-69
2021/06/11 13:01:03;;;;;;;6.60;4.80;;;27.20;55.60;;;;;;4994157;28;20629;-69
2021/06/11 13:03:34;;;;;;;5.77;4.83;;;27.20;55.60;;;;;;4977226;28;20231;-69
2021/06/11 13:06:04;;;;;;;6.50;5.50;;;27.30;55.50;;;;;;4995530;28;20743;-69
2021/06/11 13:08:37;;;;;;;6.63;5.03;;;27.30;55.50;;;;;;4994187;28;20235;-69
2021/06/11 13:11:08;;;;;;;6.13;5.20;;;27.30;55.30;;;;;;4993929;28;20192;-69
2021/06/11 13:13:37;;;;;;;6.40;4.93;;;27.30;55.30;;;;;;4991789;28;20200;-69
2021/06/11 13:16:08;;;;;;;6.27;5.30;;;27.40;55.60;;;;;;4993137;28;20200;-68
2021/06/11 13:18:43;;;;;;;7.57;5.80;;;27.40;55.70;;;;;;4991452;28;20206;-68
2021/06/11 13:21:15;;;;;;;6.63;4.97;;;27.40;55.60;;;;;;4992200;28;20315;-68
2021/06/11 13:23:45;;;;;;;5.90;4.90;;;27.40;55.60;;;;;;4992468;28;20650;-69
2021/06/11 13:26:18;;;;;;;6.93;5.53;;;27.50;55.80;;;;;;4978573;28;20243;-68